sensor_id;sensor_type;location;lat;lon;timestamp;pressure;altitude;pressure_sealevel;temperature;humidity
4392;BME280;2210;51.938;8.488;2023-04-21T00:00:20;100408.63;;;9.45;100.00
4392;BME280;2210;51.938;8.488;2023-04-21T00:04:20;100398.84;;;9.49;100.00
4392;BME280;2210;51.938;8.488;2023-04-21T00:08:21;100391.59;;;9.67;100.00
4392;BME280;2210;51.938;8.488;2023-04-21T00:12:21;100390.16;;;9.64;100.00
4392;BME280;2210;51.938;8.488;2023-04-21T00:16:33;100392.81;;;9.71;100.00
4392;BME280;2210;51.938;8.488;2023-04-21T00:20:34;100384.94;;;9.74;100.00
4392;BME280;2210;51.938;8.488;2023-04-21T00:24:41;100380.34;;;9.68;100.00
4392;BME280;2210;51.938;8.488;2023-04-21T00:28:41;100372.31;;;9.67;100.00
4392;BME280;2210;51.938;8.488;2023-04-21T00:32:44;100371.63;;;9.71;100.00
4392;BME280;2210;51.938;8.488;2023-04-21T00:36:54;100370.09;;;9.75;100.00
4392;BME280;2210;51.938;8.488;2023-04-21T00:40:57;100361.22;;;9.73;100.00
4392;BME280;2210;51.938;8.488;2023-04-21T00:44:58;100365.88;;;9.73;100.00
4392;BME280;2210;51.938;8.488;2023-04-21T00:48:59;100365.03;;;9.72;100.00
4392;BME280;2210;51.938;8.488;2023-04-21T00:53:00;100364.69;;;9.69;100.00
4392;BME280;2210;51.938;8.488;2023-04-21T00:57:06;100363.59;;;9.70;100.00
4392;BME280;2210;51.938;8.488;2023-04-21T01:01:10;100368.03;;;9.71;100.00
4392;BME280;2210;51.938;8.488;2023-04-21T01:05:14;100371.03;;;9.69;100.00
4392;BME280;2210;51.938;8.488;2023-04-21T01:09:16;100377.34;;;9.70;100.00
4392;BME280;2210;51.938;8.488;2023-04-21T01:13:18;100376.53;;;9.69;100.00
4392;BME280;2210;51.938;8.488;2023-04-21T01:17:19;100368.88;;;9.71;100.00
4392;BME280;2210;51.938;8.488;2023-04-21T01:21:28;100369.56;;;9.67;100.00
4392;BME280;2210;51.938;8.488;2023-04-21T01:25:31;100368.78;;;9.78;100.00
4392;BME280;2210;51.938;8.488;2023-04-21T01:29:57;100380.38;;;9.80;100.00
4392;BME280;2210;51.938;8.488;2023-04-21T01:34:07;100370.44;;;9.79;100.00
4392;BME280;2210;51.938;8.488;2023-04-21T01:38:07;100371.53;;;9.90;100.00
4392;BME280;2210;51.938;8.488;2023-04-21T01:42:07;100371.69;;;10.07;100.00
4392;BME280;2210;51.938;8.488;2023-04-21T01:46:08;100352.03;;;10.03;100.00
4392;BME280;2210;51.938;8.488;2023-04-21T01:50:14;100362.22;;;10.15;100.00
4392;BME280;2210;51.938;8.488;2023-04-21T01:54:14;100370.38;;;10.21;100.00
4392;BME280;2210;51.938;8.488;2023-04-21T01:58:15;100363.44;;;10.19;100.00
4392;BME280;2210;51.938;8.488;2023-04-21T02:02:21;100355.28;;;10.24;100.00
4392;BME280;2210;51.938;8.488;2023-04-21T02:06:28;100366.34;;;10.36;100.00
4392;BME280;2210;51.938;8.488;2023-04-21T02:10:29;100374.50;;;10.42;100.00
4392;BME280;2210;51.938;8.488;2023-04-21T02:14:29;100375.19;;;10.50;100.00
4392;BME280;2210;51.938;8.488;2023-04-21T02:18:29;100380.00;;;10.42;100.00
4392;BME280;2210;51.938;8.488;2023-04-21T02:22:39;100386.81;;;10.40;100.00
4392;BME280;2210;51.938;8.488;2023-04-21T02:26:45;100386.00;;;10.39;100.00
4392;BME280;2210;51.938;8.488;2023-04-21T02:30:46;100383.09;;;10.34;100.00
4392;BME280;2210;51.938;8.488;2023-04-21T02:34:46;100391.34;;;10.34;100.00
4392;BME280;2210;51.938;8.488;2023-04-21T02:38:46;100391.63;;;10.44;100.00
4392;BME280;2210;51.938;8.488;2023-04-21T02:42:46;100400.34;;;10.41;100.00
4392;BME280;2210;51.938;8.488;2023-04-21T02:46:50;100393.78;;;10.42;100.00
4392;BME280;2210;51.938;8.488;2023-04-21T02:50:53;100396.41;;;10.37;100.00
4392;BME280;2210;51.938;8.488;2023-04-21T02:54:53;100404.69;;;10.37;100.00
4392;BME280;2210;51.938;8.488;2023-04-21T02:58:53;100406.34;;;10.38;100.00
4392;BME280;2210;51.938;8.488;2023-04-21T03:02:57;100408.63;;;10.29;100.00
4392;BME280;2210;51.938;8.488;2023-04-21T03:06:58;100415.31;;;10.22;100.00
4392;BME280;2210;51.938;8.488;2023-04-21T03:11:01;100412.78;;;10.20;100.00
4392;BME280;2210;51.938;8.488;2023-04-21T03:15:01;100411.69;;;10.09;100.00
4392;BME280;2210;51.938;8.488;2023-04-21T03:19:02;100413.34;;;9.99;100.00
4392;BME280;2210;51.938;8.488;2023-04-21T03:23:02;100422.41;;;9.87;100.00
4392;BME280;2210;51.938;8.488;2023-04-21T03:27:04;100426.47;;;9.73;100.00
4392;BME280;2210;51.938;8.488;2023-04-21T03:31:05;100425.34;;;9.62;100.00
4392;BME280;2210;51.938;8.488;2023-04-21T03:35:08;100424.56;;;9.55;100.00
4392;BME280;2210;51.938;8.488;2023-04-21T03:39:08;100421.09;;;9.48;100.00
4392;BME280;2210;51.938;8.488;2023-04-21T03:43:09;100422.38;;;9.45;100.00
4392;BME280;2210;51.938;8.488;2023-04-21T03:47:09;100415.00;;;9.27;100.00
4392;BME280;2210;51.938;8.488;2023-04-21T03:51:13;100421.75;;;9.13;100.00
4392;BME280;2210;51.938;8.488;2023-04-21T03:55:13;100414.19;;;9.08;100.00
4392;BME280;2210;51.938;8.488;2023-04-21T03:59:13;100418.47;;;9.04;100.00
4392;BME280;2210;51.938;8.488;2023-04-21T04:03:14;100410.91;;;8.99;100.00
4392;BME280;2210;51.938;8.488;2023-04-21T04:07:14;100420.09;;;8.93;100.00
4392;BME280;2210;51.938;8.488;2023-04-21T04:11:25;100411.09;;;8.86;100.00
4392;BME280;2210;51.938;8.488;2023-04-21T04:15:26;100410.63;;;8.89;100.00
4392;BME280;2210;51.938;8.488;2023-04-21T04:19:30;100409.56;;;8.90;100.00
4392;BME280;2210;51.938;8.488;2023-04-21T04:23:33;100415.66;;;8.92;100.00
4392;BME280;2210;51.938;8.488;2023-04-21T04:27:34;100411.22;;;8.91;100.00
4392;BME280;2210;51.938;8.488;2023-04-21T04:31:34;100408.47;;;8.91;100.00
4392;BME280;2210;51.938;8.488;2023-04-21T04:35:34;100402.53;;;8.94;100.00
4392;BME280;2210;51.938;8.488;2023-04-21T04:39:35;100400.38;;;8.96;100.00
4392;BME280;2210;51.938;8.488;2023-04-21T04:43:36;100399.97;;;8.92;100.00
4392;BME280;2210;51.938;8.488;2023-04-21T04:47:41;100401.91;;;8.92;100.00
4392;BME280;2210;51.938;8.488;2023-04-21T04:51:41;100396.09;;;9.00;100.00
4392;BME280;2210;51.938;8.488;2023-04-21T04:55:41;100408.47;;;9.09;100.00
4392;BME280;2210;51.938;8.488;2023-04-21T04:59:42;100401.81;;;9.17;100.00
4392;BME280;2210;51.938;8.488;2023-04-21T05:03:43;100415.50;;;9.24;100.00
4392;BME280;2210;51.938;8.488;2023-04-21T05:07:43;100421.97;;;9.30;100.00
4392;BME280;2210;51.938;8.488;2023-04-21T05:11:43;100420.19;;;9.35;100.00
4392;BME280;2210;51.938;8.488;2023-04-21T05:15:44;100424.78;;;9.41;100.00
4392;BME280;2210;51.938;8.488;2023-04-21T05:19:44;100420.75;;;9.56;100.00
4392;BME280;2210;51.938;8.488;2023-04-21T05:23:45;100419.97;;;9.67;100.00
4392;BME280;2210;51.938;8.488;2023-04-21T05:27:45;100425.59;;;9.72;100.00
4392;BME280;2210;51.938;8.488;2023-04-21T05:31:45;100431.38;;;9.83;100.00
4392;BME280;2210;51.938;8.488;2023-04-21T05:35:45;100434.53;;;9.98;100.00
4392;BME280;2210;51.938;8.488;2023-04-21T05:39:46;100436.13;;;10.06;100.00
4392;BME280;2210;51.938;8.488;2023-04-21T05:43:46;100438.53;;;10.14;100.00
4392;BME280;2210;51.938;8.488;2023-04-21T05:47:46;100423.09;;;10.25;100.00
4392;BME280;2210;51.938;8.488;2023-04-21T05:51:46;100429.66;;;10.24;100.00
4392;BME280;2210;51.938;8.488;2023-04-21T05:55:47;100432.91;;;10.21;100.00
4392;BME280;2210;51.938;8.488;2023-04-21T05:59:47;100439.47;;;10.20;100.00
4392;BME280;2210;51.938;8.488;2023-04-21T06:03:47;100433.53;;;10.23;100.00
4392;BME280;2210;51.938;8.488;2023-04-21T06:07:49;100435.44;;;10.34;100.00
4392;BME280;2210;51.938;8.488;2023-04-21T06:11:49;100426.75;;;10.61;100.00
4392;BME280;2210;51.938;8.488;2023-04-21T06:15:49;100426.00;;;10.77;100.00
4392;BME280;2210;51.938;8.488;2023-04-21T06:19:53;100426.44;;;11.10;100.00
4392;BME280;2210;51.938;8.488;2023-04-21T06:23:55;100424.94;;;11.31;100.00
4392;BME280;2210;51.938;8.488;2023-04-21T06:27:55;100411.72;;;11.62;100.00
4392;BME280;2210;51.938;8.488;2023-04-21T06:31:55;100406.53;;;11.94;98.65
4392;BME280;2210;51.938;8.488;2023-04-21T06:35:55;100410.91;;;12.07;94.48
4392;BME280;2210;51.938;8.488;2023-04-21T06:39:56;100404.88;;;12.44;94.14
4392;BME280;2210;51.938;8.488;2023-04-21T06:43:56;100398.47;;;12.61;92.36
4392;BME280;2210;51.938;8.488;2023-04-21T06:47:56;100405.91;;;12.77;89.13
4392;BME280;2210;51.938;8.488;2023-04-21T06:51:56;100399.94;;;13.08;87.71
4392;BME280;2210;51.938;8.488;2023-04-21T06:55:57;100405.53;;;13.13;83.30
4392;BME280;2210;51.938;8.488;2023-04-21T06:59:57;100394.38;;;13.47;84.33
4392;BME280;2210;51.938;8.488;2023-04-21T07:04:00;100398.50;;;13.49;82.44
4392;BME280;2210;51.938;8.488;2023-04-21T07:08:01;100400.56;;;13.87;80.14
4392;BME280;2210;51.938;8.488;2023-04-21T07:12:01;100394.66;;;13.78;80.01
4392;BME280;2210;51.938;8.488;2023-04-21T07:16:02;100401.59;;;13.80;79.64
4392;BME280;2210;51.938;8.488;2023-04-21T07:20:02;100399.72;;;14.19;77.52
4392;BME280;2210;51.938;8.488;2023-04-21T07:24:03;100399.78;;;14.24;76.49
4392;BME280;2210;51.938;8.488;2023-04-21T07:28:03;100388.50;;;14.36;75.41
4392;BME280;2210;51.938;8.488;2023-04-21T07:32:04;100391.13;;;14.58;75.40
4392;BME280;2210;51.938;8.488;2023-04-21T07:36:04;100390.59;;;14.61;74.50
4392;BME280;2210;51.938;8.488;2023-04-21T07:40:07;100387.22;;;14.54;73.94
4392;BME280;2210;51.938;8.488;2023-04-21T07:44:07;100394.00;;;13.98;75.44
4392;BME280;2210;51.938;8.488;2023-04-21T07:48:08;100387.00;;;13.90;76.92
4392;BME280;2210;51.938;8.488;2023-04-21T07:52:08;100398.03;;;14.12;76.48
4392;BME280;2210;51.938;8.488;2023-04-21T07:56:08;100389.25;;;14.63;74.84
4392;BME280;2210;51.938;8.488;2023-04-21T08:00:09;100386.75;;;15.10;71.12
4392;BME280;2210;51.938;8.488;2023-04-21T08:04:09;100380.75;;;15.54;68.96
4392;BME280;2210;51.938;8.488;2023-04-21T08:08:10;100383.28;;;15.61;69.98
4392;BME280;2210;51.938;8.488;2023-04-21T08:12:10;100378.66;;;15.08;69.52
4392;BME280;2210;51.938;8.488;2023-04-21T08:16:10;100375.16;;;14.65;71.64
4392;BME280;2210;51.938;8.488;2023-04-21T08:20:11;100379.41;;;14.45;74.25
4392;BME280;2210;51.938;8.488;2023-04-21T08:24:11;100380.94;;;14.26;74.07
4392;BME280;2210;51.938;8.488;2023-04-21T08:28:12;100376.03;;;14.38;72.95
4392;BME280;2210;51.938;8.488;2023-04-21T08:32:14;100378.59;;;14.45;73.99
4392;BME280;2210;51.938;8.488;2023-04-21T08:36:14;100384.63;;;14.37;75.16
4392;BME280;2210;51.938;8.488;2023-04-21T08:40:15;100378.31;;;14.89;74.57
4392;BME280;2210;51.938;8.488;2023-04-21T08:44:15;100375.50;;;15.68;70.47
4392;BME280;2210;51.938;8.488;2023-04-21T08:48:18;100377.72;;;15.66;68.30
4392;BME280;2210;51.938;8.488;2023-04-21T08:52:21;100367.78;;;16.16;67.73
4392;BME280;2210;51.938;8.488;2023-04-21T08:56:23;100355.75;;;16.62;66.10
4392;BME280;2210;51.938;8.488;2023-04-21T09:00:24;100353.25;;;16.66;65.63
4392;BME280;2210;51.938;8.488;2023-04-21T09:04:24;100345.13;;;16.80;65.56
4392;BME280;2210;51.938;8.488;2023-04-21T09:08:25;100358.75;;;16.81;63.65
4392;BME280;2210;51.938;8.488;2023-04-21T09:12:28;100350.38;;;16.97;63.75
4392;BME280;2210;51.938;8.488;2023-04-21T09:16:31;100346.22;;;16.79;63.29
4392;BME280;2210;51.938;8.488;2023-04-21T09:20:34;100340.38;;;16.80;61.99
4392;BME280;2210;51.938;8.488;2023-04-21T09:24:36;100336.47;;;17.47;62.34
4392;BME280;2210;51.938;8.488;2023-04-21T09:28:43;100341.88;;;17.23;61.06
4392;BME280;2210;51.938;8.488;2023-04-21T09:32:43;100330.97;;;17.36;59.74
4392;BME280;2210;51.938;8.488;2023-04-21T09:36:44;100329.91;;;17.27;60.97
4392;BME280;2210;51.938;8.488;2023-04-21T09:40:44;100334.69;;;17.16;61.68
4392;BME280;2210;51.938;8.488;2023-04-21T09:44:44;100332.66;;;17.77;60.57
4392;BME280;2210;51.938;8.488;2023-04-21T09:48:46;100318.19;;;17.70;59.85
4392;BME280;2210;51.938;8.488;2023-04-21T09:52:49;100323.81;;;17.65;57.61
4392;BME280;2210;51.938;8.488;2023-04-21T09:56:52;100317.09;;;17.66;57.66
4392;BME280;2210;51.938;8.488;2023-04-21T10:00:56;100320.91;;;17.80;59.10
4392;BME280;2210;51.938;8.488;2023-04-21T10:04:59;100313.94;;;17.78;57.37
4392;BME280;2210;51.938;8.488;2023-04-21T10:09:00;100305.13;;;18.00;58.86
4392;BME280;2210;51.938;8.488;2023-04-21T10:13:01;100302.72;;;17.88;58.24
4392;BME280;2210;51.938;8.488;2023-04-21T10:17:11;100297.44;;;18.16;55.56
4392;BME280;2210;51.938;8.488;2023-04-21T10:21:17;100276.22;;;18.44;56.71
4392;BME280;2210;51.938;8.488;2023-04-21T10:25:28;100278.38;;;18.52;57.65
4392;BME280;2210;51.938;8.488;2023-04-21T10:29:29;100263.34;;;18.48;58.08
4392;BME280;2210;51.938;8.488;2023-04-21T10:33:30;100269.09;;;18.33;57.89
4392;BME280;2210;51.938;8.488;2023-04-21T10:37:30;100272.34;;;17.86;58.06
4392;BME280;2210;51.938;8.488;2023-04-21T10:41:34;100262.66;;;17.74;60.18
4392;BME280;2210;51.938;8.488;2023-04-21T10:45:36;100266.06;;;17.70;60.01
4392;BME280;2210;51.938;8.488;2023-04-21T10:49:38;100250.38;;;18.09;60.60
4392;BME280;2210;51.938;8.488;2023-04-21T10:53:42;100251.53;;;18.08;61.10
4392;BME280;2210;51.938;8.488;2023-04-21T10:57:46;100232.63;;;18.24;58.96
4392;BME280;2210;51.938;8.488;2023-04-21T11:01:46;100228.00;;;18.14;54.38
4392;BME280;2210;51.938;8.488;2023-04-21T11:05:50;100226.94;;;18.10;53.63
4392;BME280;2210;51.938;8.488;2023-04-21T11:10:02;100217.81;;;18.29;53.49
4392;BME280;2210;51.938;8.488;2023-04-21T11:14:05;100214.66;;;18.35;51.91
4392;BME280;2210;51.938;8.488;2023-04-21T11:18:08;100217.16;;;18.37;51.54
4392;BME280;2210;51.938;8.488;2023-04-21T11:22:11;100208.59;;;18.71;51.88
4392;BME280;2210;51.938;8.488;2023-04-21T11:26:18;100222.09;;;18.64;50.77
4392;BME280;2210;51.938;8.488;2023-04-21T11:30:29;100192.94;;;18.95;50.33
4392;BME280;2210;51.938;8.488;2023-04-21T11:34:30;100189.97;;;19.24;49.92
4392;BME280;2210;51.938;8.488;2023-04-21T11:38:40;100182.50;;;19.38;48.44
4392;BME280;2210;51.938;8.488;2023-04-21T11:42:44;100174.97;;;20.00;47.58
4392;BME280;2210;51.938;8.488;2023-04-21T11:46:48;100167.41;;;20.42;45.75
4392;BME280;2210;51.938;8.488;2023-04-21T11:50:51;100161.41;;;20.21;45.80
4392;BME280;2210;51.938;8.488;2023-04-21T11:55:02;100160.47;;;20.26;43.53
4392;BME280;2210;51.938;8.488;2023-04-21T11:59:12;100155.38;;;20.28;42.67
4392;BME280;2210;51.938;8.488;2023-04-21T12:03:13;100132.44;;;19.70;43.10
4392;BME280;2210;51.938;8.488;2023-04-21T12:07:21;100133.50;;;19.88;42.68
4392;BME280;2210;51.938;8.488;2023-04-21T12:11:29;100135.75;;;19.72;42.63
4392;BME280;2210;51.938;8.488;2023-04-21T12:15:30;100144.59;;;19.46;43.55
4392;BME280;2210;51.938;8.488;2023-04-21T12:19:38;100114.16;;;19.45;42.70
4392;BME280;2210;51.938;8.488;2023-04-21T12:23:39;100129.78;;;19.32;41.66
4392;BME280;2210;51.938;8.488;2023-04-21T12:27:52;100128.50;;;19.24;43.37
4392;BME280;2210;51.938;8.488;2023-04-21T12:31:56;100119.06;;;19.20;42.88
4392;BME280;2210;51.938;8.488;2023-04-21T12:35:56;100107.16;;;19.75;42.42
4392;BME280;2210;51.938;8.488;2023-04-21T12:39:56;100091.22;;;20.17;41.63
4392;BME280;2210;51.938;8.488;2023-04-21T12:44:00;100093.38;;;20.85;40.35
4392;BME280;2210;51.938;8.488;2023-04-21T12:48:07;100083.25;;;20.61;39.28
4392;BME280;2210;51.938;8.488;2023-04-21T12:52:13;100084.81;;;20.90;39.06
4392;BME280;2210;51.938;8.488;2023-04-21T12:56:14;100090.09;;;20.55;39.36
4392;BME280;2210;51.938;8.488;2023-04-21T13:00:14;100085.66;;;20.91;38.39
4392;BME280;2210;51.938;8.488;2023-04-21T13:04:15;100076.44;;;21.44;38.15
4392;BME280;2210;51.938;8.488;2023-04-21T13:08:15;100059.91;;;21.34;37.66
4392;BME280;2210;51.938;8.488;2023-04-21T13:12:15;100074.72;;;21.34;38.45
4392;BME280;2210;51.938;8.488;2023-04-21T13:16:16;100081.81;;;21.32;37.89
4392;BME280;2210;51.938;8.488;2023-04-21T13:20:16;100069.09;;;21.26;39.07
4392;BME280;2210;51.938;8.488;2023-04-21T13:24:21;100068.09;;;20.99;38.45
4392;BME280;2210;51.938;8.488;2023-04-21T13:28:21;100066.44;;;20.98;38.03
4392;BME280;2210;51.938;8.488;2023-04-21T13:32:22;100050.16;;;21.31;37.06
4392;BME280;2210;51.938;8.488;2023-04-21T13:36:22;100046.22;;;21.41;36.48
4392;BME280;2210;51.938;8.488;2023-04-21T13:40:22;100036.34;;;21.44;37.12
4392;BME280;2210;51.938;8.488;2023-04-21T13:44:23;100049.47;;;21.03;37.87
4392;BME280;2210;51.938;8.488;2023-04-21T13:48:23;100039.53;;;20.97;39.07
4392;BME280;2210;51.938;8.488;2023-04-21T13:52:26;100026.16;;;21.16;39.35
4392;BME280;2210;51.938;8.488;2023-04-21T13:56:27;100029.53;;;21.36;37.25
4392;BME280;2210;51.938;8.488;2023-04-21T14:00:27;100030.31;;;21.28;38.38
4392;BME280;2210;51.938;8.488;2023-04-21T14:04:28;100025.25;;;21.30;38.64
4392;BME280;2210;51.938;8.488;2023-04-21T14:08:28;100015.53;;;21.04;37.94
4392;BME280;2210;51.938;8.488;2023-04-21T14:12:29;99997.69;;;21.32;38.77
4392;BME280;2210;51.938;8.488;2023-04-21T14:16:29;100006.13;;;21.09;39.58
4392;BME280;2210;51.938;8.488;2023-04-21T14:20:36;100006.78;;;20.38;41.16
4392;BME280;2210;51.938;8.488;2023-04-21T14:24:37;100003.16;;;20.60;40.74
4392;BME280;2210;51.938;8.488;2023-04-21T14:28:40;100002.44;;;20.32;40.46
4392;BME280;2210;51.938;8.488;2023-04-21T14:32:41;100005.22;;;20.09;40.97
4392;BME280;2210;51.938;8.488;2023-04-21T14:36:44;99992.72;;;19.93;42.01
4392;BME280;2210;51.938;8.488;2023-04-21T14:40:48;99990.09;;;19.96;42.12
4392;BME280;2210;51.938;8.488;2023-04-21T14:44:59;99978.09;;;19.96;41.87
4392;BME280;2210;51.938;8.488;2023-04-21T14:48:59;99990.50;;;19.90;41.95
4392;BME280;2210;51.938;8.488;2023-04-21T14:52:59;99985.75;;;19.90;42.92
4392;BME280;2210;51.938;8.488;2023-04-21T14:57:00;99979.31;;;19.76;43.25
4392;BME280;2210;51.938;8.488;2023-04-21T15:01:00;99978.50;;;19.89;44.35
4392;BME280;2210;51.938;8.488;2023-04-21T15:05:01;99963.06;;;19.92;43.65
4392;BME280;2210;51.938;8.488;2023-04-21T15:09:01;99953.25;;;20.17;43.85
4392;BME280;2210;51.938;8.488;2023-04-21T15:13:04;99944.94;;;20.26;43.17
4392;BME280;2210;51.938;8.488;2023-04-21T15:17:04;99950.50;;;20.03;43.04
4392;BME280;2210;51.938;8.488;2023-04-21T15:21:04;99947.22;;;19.87;43.06
4392;BME280;2210;51.938;8.488;2023-04-21T15:25:05;99943.47;;;19.92;43.24
4392;BME280;2210;51.938;8.488;2023-04-21T15:29:05;99932.94;;;20.11;43.15
4392;BME280;2210;51.938;8.488;2023-04-21T15:33:06;99933.25;;;20.10;43.02
4392;BME280;2210;51.938;8.488;2023-04-21T15:37:06;99932.03;;;20.02;43.56
4392;BME280;2210;51.938;8.488;2023-04-21T15:41:06;99938.69;;;19.92;43.69
4392;BME280;2210;51.938;8.488;2023-04-21T15:45:08;99942.66;;;19.77;43.66
4392;BME280;2210;51.938;8.488;2023-04-21T15:49:08;99937.09;;;19.63;43.72
4392;BME280;2210;51.938;8.488;2023-04-21T15:53:08;99933.69;;;19.52;44.33
4392;BME280;2210;51.938;8.488;2023-04-21T15:57:09;99929.31;;;19.46;44.37
4392;BME280;2210;51.938;8.488;2023-04-21T16:01:09;99928.50;;;19.46;44.66
4392;BME280;2210;51.938;8.488;2023-04-21T16:05:09;99924.56;;;19.33;45.29
4392;BME280;2210;51.938;8.488;2023-04-21T16:09:10;99925.00;;;19.26;45.67
4392;BME280;2210;51.938;8.488;2023-04-21T16:13:10;99910.81;;;19.23;45.05
4392;BME280;2210;51.938;8.488;2023-04-21T16:17:11;99911.63;;;19.23;45.46
4392;BME280;2210;51.938;8.488;2023-04-21T16:21:11;99902.53;;;19.17;46.13
4392;BME280;2210;51.938;8.488;2023-04-21T16:25:11;99896.72;;;19.14;46.47
4392;BME280;2210;51.938;8.488;2023-04-21T16:29:13;99897.66;;;19.09;46.39
4392;BME280;2210;51.938;8.488;2023-04-21T16:33:13;99893.84;;;19.05;46.31
4392;BME280;2210;51.938;8.488;2023-04-21T16:37:13;99898.91;;;19.03;46.36
4392;BME280;2210;51.938;8.488;2023-04-21T16:41:15;99899.84;;;18.98;47.90
4392;BME280;2210;51.938;8.488;2023-04-21T16:45:17;99887.94;;;18.93;47.59
4392;BME280;2210;51.938;8.488;2023-04-21T16:49:17;99890.25;;;18.85;48.48
4392;BME280;2210;51.938;8.488;2023-04-21T16:53:17;99881.72;;;18.96;47.82
4392;BME280;2210;51.938;8.488;2023-04-21T16:57:17;99881.63;;;19.01;47.97
4392;BME280;2210;51.938;8.488;2023-04-21T17:01:18;99871.50;;;19.05;47.68
4392;BME280;2210;51.938;8.488;2023-04-21T17:05:18;99878.22;;;19.04;46.85
4392;BME280;2210;51.938;8.488;2023-04-21T17:09:18;99878.31;;;18.99;47.87
4392;BME280;2210;51.938;8.488;2023-04-21T17:13:19;99872.72;;;18.99;47.39
4392;BME280;2210;51.938;8.488;2023-04-21T17:17:19;99878.31;;;18.99;47.44
4392;BME280;2210;51.938;8.488;2023-04-21T17:21:19;99869.53;;;18.92;47.26
4392;BME280;2210;51.938;8.488;2023-04-21T17:25:19;99866.69;;;18.78;47.91
4392;BME280;2210;51.938;8.488;2023-04-21T17:29:20;99866.78;;;18.73;48.14
4392;BME280;2210;51.938;8.488;2023-04-21T17:33:21;99865.94;;;18.58;48.49
4392;BME280;2210;51.938;8.488;2023-04-21T17:37:21;99854.66;;;18.49;48.67
4392;BME280;2210;51.938;8.488;2023-04-21T17:41:25;99850.75;;;18.50;48.87
4392;BME280;2210;51.938;8.488;2023-04-21T17:45:25;99845.97;;;18.51;48.77
4392;BME280;2210;51.938;8.488;2023-04-21T17:49:25;99855.06;;;18.43;49.18
4392;BME280;2210;51.938;8.488;2023-04-21T17:53:26;99852.66;;;18.36;48.88
4392;BME280;2210;51.938;8.488;2023-04-21T17:57:29;99844.06;;;18.32;49.18
4392;BME280;2210;51.938;8.488;2023-04-21T18:01:30;99847.78;;;18.28;48.99
4392;BME280;2210;51.938;8.488;2023-04-21T18:05:30;99847.94;;;18.17;49.69
4392;BME280;2210;51.938;8.488;2023-04-21T18:09:31;99847.00;;;18.08;50.05
4392;BME280;2210;51.938;8.488;2023-04-21T18:13:31;99852.97;;;18.01;49.74
4392;BME280;2210;51.938;8.488;2023-04-21T18:17:31;99851.63;;;17.99;49.61
4392;BME280;2210;51.938;8.488;2023-04-21T18:21:33;99846.97;;;17.89;49.80
4392;BME280;2210;51.938;8.488;2023-04-21T18:25:46;99848.44;;;17.86;50.06
4392;BME280;2210;51.938;8.488;2023-04-21T18:29:46;99850.25;;;17.77;49.75
4392;BME280;2210;51.938;8.488;2023-04-21T18:33:46;99850.03;;;17.74;50.40
4392;BME280;2210;51.938;8.488;2023-04-21T18:37:47;99853.25;;;17.81;49.99
4392;BME280;2210;51.938;8.488;2023-04-21T18:41:48;99853.03;;;17.77;49.26
4392;BME280;2210;51.938;8.488;2023-04-21T18:45:48;99862.84;;;17.75;49.40
4392;BME280;2210;51.938;8.488;2023-04-21T18:49:48;99855.97;;;17.67;49.37
4392;BME280;2210;51.938;8.488;2023-04-21T18:53:48;99860.06;;;17.56;49.57
4392;BME280;2210;51.938;8.488;2023-04-21T18:57:49;99862.91;;;17.50;50.10
4392;BME280;2210;51.938;8.488;2023-04-21T19:01:50;99861.72;;;17.57;49.19
4392;BME280;2210;51.938;8.488;2023-04-21T19:05:50;99870.34;;;17.55;49.06
4392;BME280;2210;51.938;8.488;2023-04-21T19:09:54;99860.72;;;17.47;49.64
4392;BME280;2210;51.938;8.488;2023-04-21T19:13:54;99866.97;;;17.39;49.10
4392;BME280;2210;51.938;8.488;2023-04-21T19:17:54;99872.66;;;17.29;49.31
4392;BME280;2210;51.938;8.488;2023-04-21T19:21:55;99863.72;;;17.32;49.05
4392;BME280;2210;51.938;8.488;2023-04-21T19:25:55;99864.38;;;17.24;49.68
4392;BME280;2210;51.938;8.488;2023-04-21T19:29:57;99870.50;;;17.26;49.42
4392;BME280;2210;51.938;8.488;2023-04-21T19:33:57;99861.81;;;17.27;49.31
4392;BME280;2210;51.938;8.488;2023-04-21T19:37:58;99860.09;;;17.31;48.24
4392;BME280;2210;51.938;8.488;2023-04-21T19:41:58;99857.69;;;17.25;48.80
4392;BME280;2210;51.938;8.488;2023-04-21T19:46:01;99861.66;;;17.18;49.08
4392;BME280;2210;51.938;8.488;2023-04-21T19:50:04;99868.66;;;17.16;48.56
4392;BME280;2210;51.938;8.488;2023-04-21T19:54:06;99870.31;;;17.17;48.42
4392;BME280;2210;51.938;8.488;2023-04-21T19:58:07;99860.94;;;17.08;48.98
4392;BME280;2210;51.938;8.488;2023-04-21T20:02:11;99858.41;;;17.11;49.66
4392;BME280;2210;51.938;8.488;2023-04-21T20:06:11;99856.44;;;17.12;48.90
4392;BME280;2210;51.938;8.488;2023-04-21T20:10:11;99864.53;;;17.13;49.84
4392;BME280;2210;51.938;8.488;2023-04-21T20:14:12;99859.53;;;17.10;48.46
4392;BME280;2210;51.938;8.488;2023-04-21T20:18:13;99865.69;;;17.07;48.88
4392;BME280;2210;51.938;8.488;2023-04-21T20:22:13;99892.94;;;17.10;48.63
4392;BME280;2210;51.938;8.488;2023-04-21T20:26:20;99913.53;;;16.90;50.50
4392;BME280;2210;51.938;8.488;2023-04-21T20:30:20;99914.75;;;16.74;52.10
4392;BME280;2210;51.938;8.488;2023-04-21T20:34:20;99912.38;;;16.62;52.52
4392;BME280;2210;51.938;8.488;2023-04-21T20:38:21;99900.09;;;16.63;52.32
4392;BME280;2210;51.938;8.488;2023-04-21T20:42:25;99921.31;;;16.59;52.33
4392;BME280;2210;51.938;8.488;2023-04-21T20:46:27;99929.91;;;16.62;52.76
4392;BME280;2210;51.938;8.488;2023-04-21T20:50:31;99924.59;;;16.66;52.95
4392;BME280;2210;51.938;8.488;2023-04-21T20:54:31;99912.06;;;16.34;54.99
4392;BME280;2210;51.938;8.488;2023-04-21T20:58:33;99891.38;;;16.16;55.33
4392;BME280;2210;51.938;8.488;2023-04-21T21:02:35;99879.00;;;15.98;55.85
4392;BME280;2210;51.938;8.488;2023-04-21T21:06:36;99880.72;;;15.89;55.51
4392;BME280;2210;51.938;8.488;2023-04-21T21:10:37;99869.63;;;15.89;56.38
4392;BME280;2210;51.938;8.488;2023-04-21T21:14:37;99851.84;;;15.84;56.65
4392;BME280;2210;51.938;8.488;2023-04-21T21:18:37;99849.44;;;16.07;54.54
4392;BME280;2210;51.938;8.488;2023-04-21T21:22:37;99853.38;;;16.01;54.79
4392;BME280;2210;51.938;8.488;2023-04-21T21:26:38;99853.91;;;16.03;54.75
4392;BME280;2210;51.938;8.488;2023-04-21T21:30:39;99851.22;;;15.93;54.30
4392;BME280;2210;51.938;8.488;2023-04-21T21:34:48;99851.25;;;15.88;54.45
4392;BME280;2210;51.938;8.488;2023-04-21T21:38:54;99855.94;;;15.92;54.57